Impacts TAF Board INFO
FOR SITUATIONAL AWARENESS. NOT TO BE USED FOR FLIGHT PLANNING PURPOSES.
IDs:

KCLE - Cleveland/Hopkins In, OH, US

Issued at 2041 UTC 13 Dec 2017
Updated at 2054 UTC 13 Dec 2017
Potential Impact None Slight Moderate High
Time<<14/21Z 14/22Z 14/23Z 15/00Z 15/01Z 15/02Z 15/03Z 15/04Z 15/05Z 15/06Z 15/07Z 15/08Z 15/09Z
Type PRVL PRVL PRVL
VIS >6 >6 >6
CIG 35 35 35
Cover BKN BKN BKN
FltCat VFR VFR VFR
WX -- -- --
WDir 300 300 300
WSpd 10 10 10
WGst -- -- --

Raw TAF
KCLE 132041Z 1321/1424 17010KT P6SM OVC035
  FM132300 11011KT 3/4SM -SN BKN015 OVC035
  TEMPO 1323/1403 OVC010
  FM140300 09011KT 1SM -SHSN OVC010
  FM140900 36011KT 3SM -SHSN OVC010
  FM141200 35012KT P6SM SCT015 OVC030
  FM142000 30010KT P6SM BKN035


METAR Board
Radar Display
Forecast Discussion

FOR SITUATIONAL AWARENESS. NOT TO BE USED FOR FLIGHT PLANNING PURPOSES.